sensor_id;sensor_type;location;lat;lon;timestamp;P1;durP1;ratioP1;P2;durP2;ratioP2
63016;SDS011;50274;45.640;11.756;2023-11-19T00:00:33;27.73;;;16.80;;
63016;SDS011;50274;45.640;11.756;2023-11-19T00:02:59;29.35;;;17.02;;
63016;SDS011;50274;45.640;11.756;2023-11-19T00:05:25;30.37;;;16.97;;
63016;SDS011;50274;45.640;11.756;2023-11-19T00:07:52;31.27;;;17.95;;
63016;SDS011;50274;45.640;11.756;2023-11-19T00:10:19;27.30;;;16.55;;
63016;SDS011;50274;45.640;11.756;2023-11-19T00:12:49;32.00;;;17.27;;
63016;SDS011;50274;45.640;11.756;2023-11-19T00:15:15;29.98;;;17.40;;
63016;SDS011;50274;45.640;11.756;2023-11-19T00:17:44;25.80;;;16.10;;
63016;SDS011;50274;45.640;11.756;2023-11-19T00:20:11;28.90;;;16.70;;
63016;SDS011;50274;45.640;11.756;2023-11-19T00:22:37;29.15;;;16.60;;
63016;SDS011;50274;45.640;11.756;2023-11-19T00:25:03;26.02;;;15.88;;
63016;SDS011;50274;45.640;11.756;2023-11-19T00:27:31;23.67;;;15.87;;
63016;SDS011;50274;45.640;11.756;2023-11-19T00:29:56;25.60;;;15.98;;
63016;SDS011;50274;45.640;11.756;2023-11-19T00:32:22;26.45;;;15.13;;
63016;SDS011;50274;45.640;11.756;2023-11-19T00:34:48;25.17;;;14.63;;
63016;SDS011;50274;45.640;11.756;2023-11-19T00:37:15;23.33;;;13.70;;
63016;SDS011;50274;45.640;11.756;2023-11-19T00:39:44;29.60;;;16.55;;
63016;SDS011;50274;45.640;11.756;2023-11-19T00:42:10;28.25;;;16.10;;
63016;SDS011;50274;45.640;11.756;2023-11-19T00:44:36;26.67;;;15.68;;
63016;SDS011;50274;45.640;11.756;2023-11-19T00:47:02;25.43;;;14.57;;
63016;SDS011;50274;45.640;11.756;2023-11-19T00:49:28;22.27;;;13.32;;
63016;SDS011;50274;45.640;11.756;2023-11-19T00:51:54;24.75;;;14.15;;
63016;SDS011;50274;45.640;11.756;2023-11-19T00:54:20;25.00;;;13.80;;
63016;SDS011;50274;45.640;11.756;2023-11-19T00:56:46;20.35;;;13.13;;
63016;SDS011;50274;45.640;11.756;2023-11-19T00:59:12;25.17;;;14.87;;
63016;SDS011;50274;45.640;11.756;2023-11-19T01:01:39;23.58;;;13.50;;
63016;SDS011;50274;45.640;11.756;2023-11-19T01:04:05;22.33;;;13.63;;
63016;SDS011;50274;45.640;11.756;2023-11-19T01:06:31;26.48;;;13.30;;
63016;SDS011;50274;45.640;11.756;2023-11-19T01:08:57;22.50;;;13.13;;
63016;SDS011;50274;45.640;11.756;2023-11-19T01:11:24;25.00;;;13.67;;
63016;SDS011;50274;45.640;11.756;2023-11-19T01:13:50;25.67;;;13.55;;
63016;SDS011;50274;45.640;11.756;2023-11-19T01:16:17;24.80;;;13.93;;
63016;SDS011;50274;45.640;11.756;2023-11-19T01:18:44;22.08;;;12.85;;
63016;SDS011;50274;45.640;11.756;2023-11-19T01:21:11;24.20;;;13.30;;
63016;SDS011;50274;45.640;11.756;2023-11-19T01:23:39;27.57;;;14.70;;
63016;SDS011;50274;45.640;11.756;2023-11-19T01:26:08;27.30;;;14.88;;
63016;SDS011;50274;45.640;11.756;2023-11-19T01:28:35;32.70;;;15.90;;
63016;SDS011;50274;45.640;11.756;2023-11-19T01:31:01;24.38;;;14.38;;
63016;SDS011;50274;45.640;11.756;2023-11-19T01:33:28;23.90;;;13.82;;
63016;SDS011;50274;45.640;11.756;2023-11-19T01:35:54;26.10;;;14.33;;
63016;SDS011;50274;45.640;11.756;2023-11-19T01:38:23;25.52;;;13.48;;
63016;SDS011;50274;45.640;11.756;2023-11-19T01:40:50;22.88;;;13.68;;
63016;SDS011;50274;45.640;11.756;2023-11-19T01:43:34;25.92;;;14.05;;
63016;SDS011;50274;45.640;11.756;2023-11-19T01:46:04;23.13;;;12.82;;
63016;SDS011;50274;45.640;11.756;2023-11-19T01:48:32;24.80;;;13.80;;
63016;SDS011;50274;45.640;11.756;2023-11-19T01:51:01;26.50;;;15.02;;
63016;SDS011;50274;45.640;11.756;2023-11-19T01:53:28;23.55;;;14.30;;
63016;SDS011;50274;45.640;11.756;2023-11-19T01:55:55;25.30;;;13.75;;
63016;SDS011;50274;45.640;11.756;2023-11-19T01:58:23;24.30;;;13.35;;
63016;SDS011;50274;45.640;11.756;2023-11-19T02:00:49;25.10;;;14.23;;
63016;SDS011;50274;45.640;11.756;2023-11-19T02:03:15;22.80;;;13.48;;
63016;SDS011;50274;45.640;11.756;2023-11-19T02:05:42;25.58;;;13.48;;
63016;SDS011;50274;45.640;11.756;2023-11-19T02:08:08;21.75;;;12.57;;
63016;SDS011;50274;45.640;11.756;2023-11-19T02:10:34;20.57;;;11.73;;
63016;SDS011;50274;45.640;11.756;2023-11-19T02:13:00;20.67;;;12.23;;
63016;SDS011;50274;45.640;11.756;2023-11-19T02:15:26;21.98;;;11.60;;
63016;SDS011;50274;45.640;11.756;2023-11-19T02:17:53;23.58;;;12.25;;
63016;SDS011;50274;45.640;11.756;2023-11-19T02:20:18;19.93;;;11.20;;
63016;SDS011;50274;45.640;11.756;2023-11-19T02:22:48;21.83;;;12.10;;
63016;SDS011;50274;45.640;11.756;2023-11-19T02:25:31;23.45;;;12.48;;
63016;SDS011;50274;45.640;11.756;2023-11-19T02:27:59;21.48;;;11.60;;
63016;SDS011;50274;45.640;11.756;2023-11-19T02:30:26;20.37;;;11.40;;
63016;SDS011;50274;45.640;11.756;2023-11-19T02:32:54;20.85;;;11.63;;
63016;SDS011;50274;45.640;11.756;2023-11-19T02:35:22;20.27;;;12.00;;
63016;SDS011;50274;45.640;11.756;2023-11-19T02:37:49;16.98;;;10.20;;
63016;SDS011;50274;45.640;11.756;2023-11-19T02:40:14;21.25;;;11.50;;
63016;SDS011;50274;45.640;11.756;2023-11-19T02:42:40;19.23;;;10.90;;
63016;SDS011;50274;45.640;11.756;2023-11-19T02:45:07;20.50;;;11.77;;
63016;SDS011;50274;45.640;11.756;2023-11-19T02:47:38;18.30;;;10.50;;
63016;SDS011;50274;45.640;11.756;2023-11-19T02:50:06;23.70;;;11.50;;
63016;SDS011;50274;45.640;11.756;2023-11-19T02:52:38;18.95;;;11.35;;
63016;SDS011;50274;45.640;11.756;2023-11-19T02:55:05;21.17;;;11.93;;
63016;SDS011;50274;45.640;11.756;2023-11-19T02:57:37;17.73;;;10.73;;
63016;SDS011;50274;45.640;11.756;2023-11-19T03:00:15;20.35;;;11.57;;
63016;SDS011;50274;45.640;11.756;2023-11-19T03:02:42;19.35;;;10.93;;
63016;SDS011;50274;45.640;11.756;2023-11-19T03:05:13;21.45;;;11.85;;
63016;SDS011;50274;45.640;11.756;2023-11-19T03:07:43;20.47;;;11.23;;
63016;SDS011;50274;45.640;11.756;2023-11-19T03:10:12;18.42;;;10.40;;
63016;SDS011;50274;45.640;11.756;2023-11-19T03:12:41;17.80;;;10.48;;
63016;SDS011;50274;45.640;11.756;2023-11-19T03:15:10;17.38;;;10.65;;
63016;SDS011;50274;45.640;11.756;2023-11-19T03:17:40;20.27;;;11.02;;
63016;SDS011;50274;45.640;11.756;2023-11-19T03:20:08;18.30;;;10.97;;
63016;SDS011;50274;45.640;11.756;2023-11-19T03:22:38;19.77;;;10.80;;
63016;SDS011;50274;45.640;11.756;2023-11-19T03:25:06;22.10;;;12.10;;
63016;SDS011;50274;45.640;11.756;2023-11-19T03:27:34;22.77;;;12.02;;
63016;SDS011;50274;45.640;11.756;2023-11-19T03:30:01;19.65;;;10.52;;
63016;SDS011;50274;45.640;11.756;2023-11-19T03:32:30;19.50;;;11.13;;
63016;SDS011;50274;45.640;11.756;2023-11-19T03:34:57;20.90;;;11.48;;
63016;SDS011;50274;45.640;11.756;2023-11-19T03:37:23;22.95;;;12.45;;
63016;SDS011;50274;45.640;11.756;2023-11-19T03:39:49;20.33;;;10.88;;
63016;SDS011;50274;45.640;11.756;2023-11-19T03:42:14;20.30;;;11.23;;
63016;SDS011;50274;45.640;11.756;2023-11-19T03:44:40;20.13;;;10.93;;
63016;SDS011;50274;45.640;11.756;2023-11-19T03:47:06;21.33;;;10.70;;
63016;SDS011;50274;45.640;11.756;2023-11-19T03:49:32;17.85;;;10.75;;
63016;SDS011;50274;45.640;11.756;2023-11-19T03:51:57;21.03;;;10.47;;
63016;SDS011;50274;45.640;11.756;2023-11-19T03:54:23;19.55;;;10.77;;
63016;SDS011;50274;45.640;11.756;2023-11-19T03:56:49;18.67;;;10.90;;
63016;SDS011;50274;45.640;11.756;2023-11-19T03:59:15;18.53;;;10.83;;
63016;SDS011;50274;45.640;11.756;2023-11-19T04:01:41;19.63;;;11.48;;
63016;SDS011;50274;45.640;11.756;2023-11-19T04:04:06;19.80;;;10.27;;
63016;SDS011;50274;45.640;11.756;2023-11-19T04:06:32;18.45;;;10.45;;
63016;SDS011;50274;45.640;11.756;2023-11-19T04:08:58;20.17;;;10.13;;
63016;SDS011;50274;45.640;11.756;2023-11-19T04:11:24;18.80;;;10.82;;
63016;SDS011;50274;45.640;11.756;2023-11-19T04:13:49;17.60;;;9.90;;
63016;SDS011;50274;45.640;11.756;2023-11-19T04:16:15;14.70;;;8.38;;
63016;SDS011;50274;45.640;11.756;2023-11-19T04:18:41;16.60;;;9.73;;
63016;SDS011;50274;45.640;11.756;2023-11-19T04:21:07;17.35;;;9.70;;
63016;SDS011;50274;45.640;11.756;2023-11-19T04:23:33;19.75;;;9.98;;
63016;SDS011;50274;45.640;11.756;2023-11-19T04:26:01;15.00;;;9.30;;
63016;SDS011;50274;45.640;11.756;2023-11-19T04:28:29;17.65;;;9.70;;
63016;SDS011;50274;45.640;11.756;2023-11-19T04:30:55;16.52;;;9.35;;
63016;SDS011;50274;45.640;11.756;2023-11-19T04:33:21;16.80;;;9.00;;
63016;SDS011;50274;45.640;11.756;2023-11-19T04:35:47;15.37;;;9.00;;
63016;SDS011;50274;45.640;11.756;2023-11-19T04:38:13;18.02;;;9.82;;
63016;SDS011;50274;45.640;11.756;2023-11-19T04:40:39;18.10;;;9.43;;
63016;SDS011;50274;45.640;11.756;2023-11-19T04:43:05;19.53;;;10.13;;
63016;SDS011;50274;45.640;11.756;2023-11-19T04:45:32;19.08;;;9.40;;
63016;SDS011;50274;45.640;11.756;2023-11-19T04:47:58;17.42;;;9.50;;
63016;SDS011;50274;45.640;11.756;2023-11-19T04:50:24;18.37;;;10.03;;
63016;SDS011;50274;45.640;11.756;2023-11-19T04:52:52;18.83;;;10.00;;
63016;SDS011;50274;45.640;11.756;2023-11-19T04:55:19;19.15;;;9.80;;
63016;SDS011;50274;45.640;11.756;2023-11-19T04:57:45;17.83;;;10.23;;
63016;SDS011;50274;45.640;11.756;2023-11-19T05:00:11;17.60;;;9.93;;
63016;SDS011;50274;45.640;11.756;2023-11-19T05:02:37;20.05;;;10.30;;
63016;SDS011;50274;45.640;11.756;2023-11-19T05:05:03;18.37;;;10.53;;
63016;SDS011;50274;45.640;11.756;2023-11-19T05:07:29;18.88;;;10.50;;
63016;SDS011;50274;45.640;11.756;2023-11-19T05:09:56;20.98;;;9.98;;
63016;SDS011;50274;45.640;11.756;2023-11-19T05:12:22;16.20;;;9.80;;
63016;SDS011;50274;45.640;11.756;2023-11-19T05:14:48;19.50;;;9.90;;
63016;SDS011;50274;45.640;11.756;2023-11-19T05:17:14;17.17;;;10.37;;
63016;SDS011;50274;45.640;11.756;2023-11-19T05:19:40;15.80;;;9.73;;
63016;SDS011;50274;45.640;11.756;2023-11-19T05:22:06;18.65;;;10.75;;
63016;SDS011;50274;45.640;11.756;2023-11-19T05:24:32;16.70;;;10.23;;
63016;SDS011;50274;45.640;11.756;2023-11-19T05:26:59;16.23;;;9.73;;
63016;SDS011;50274;45.640;11.756;2023-11-19T05:29:24;22.02;;;10.98;;
63016;SDS011;50274;45.640;11.756;2023-11-19T05:31:50;16.65;;;9.88;;
63016;SDS011;50274;45.640;11.756;2023-11-19T05:34:16;18.37;;;10.90;;
63016;SDS011;50274;45.640;11.756;2023-11-19T05:36:42;17.70;;;10.45;;
63016;SDS011;50274;45.640;11.756;2023-11-19T05:39:08;15.77;;;9.55;;
63016;SDS011;50274;45.640;11.756;2023-11-19T05:41:36;18.10;;;10.47;;
63016;SDS011;50274;45.640;11.756;2023-11-19T05:44:02;17.65;;;10.30;;
63016;SDS011;50274;45.640;11.756;2023-11-19T05:46:28;19.08;;;9.93;;
63016;SDS011;50274;45.640;11.756;2023-11-19T05:48:54;16.00;;;9.77;;
63016;SDS011;50274;45.640;11.756;2023-11-19T05:51:19;16.92;;;9.55;;
63016;SDS011;50274;45.640;11.756;2023-11-19T05:53:45;15.82;;;9.63;;
63016;SDS011;50274;45.640;11.756;2023-11-19T05:56:11;19.23;;;9.57;;
63016;SDS011;50274;45.640;11.756;2023-11-19T05:58:37;14.73;;;9.02;;
63016;SDS011;50274;45.640;11.756;2023-11-19T06:01:05;17.75;;;10.07;;
63016;SDS011;50274;45.640;11.756;2023-11-19T06:03:32;17.63;;;9.87;;
63016;SDS011;50274;45.640;11.756;2023-11-19T06:05:58;18.38;;;10.15;;
63016;SDS011;50274;45.640;11.756;2023-11-19T06:08:24;18.67;;;9.90;;
63016;SDS011;50274;45.640;11.756;2023-11-19T06:10:52;16.52;;;8.55;;
63016;SDS011;50274;45.640;11.756;2023-11-19T06:13:18;15.43;;;8.50;;
63016;SDS011;50274;45.640;11.756;2023-11-19T06:15:44;14.98;;;8.73;;
63016;SDS011;50274;45.640;11.756;2023-11-19T06:18:10;15.88;;;8.80;;
63016;SDS011;50274;45.640;11.756;2023-11-19T06:20:40;15.18;;;8.95;;
63016;SDS011;50274;45.640;11.756;2023-11-19T06:23:05;19.55;;;11.18;;
63016;SDS011;50274;45.640;11.756;2023-11-19T06:25:31;17.13;;;9.37;;
63016;SDS011;50274;45.640;11.756;2023-11-19T06:27:57;17.00;;;9.60;;
63016;SDS011;50274;45.640;11.756;2023-11-19T06:30:24;18.30;;;9.38;;
63016;SDS011;50274;45.640;11.756;2023-11-19T06:32:50;18.02;;;9.20;;
63016;SDS011;50274;45.640;11.756;2023-11-19T06:35:16;18.07;;;9.43;;
63016;SDS011;50274;45.640;11.756;2023-11-19T06:37:42;20.98;;;10.70;;
63016;SDS011;50274;45.640;11.756;2023-11-19T06:40:08;19.85;;;10.05;;
63016;SDS011;50274;45.640;11.756;2023-11-19T06:42:35;15.38;;;9.05;;
63016;SDS011;50274;45.640;11.756;2023-11-19T06:45:01;15.13;;;8.60;;
63016;SDS011;50274;45.640;11.756;2023-11-19T06:47:28;16.23;;;8.80;;
63016;SDS011;50274;45.640;11.756;2023-11-19T06:49:54;17.00;;;9.15;;
63016;SDS011;50274;45.640;11.756;2023-11-19T06:52:20;17.90;;;9.85;;
63016;SDS011;50274;45.640;11.756;2023-11-19T06:54:46;17.05;;;9.15;;
63016;SDS011;50274;45.640;11.756;2023-11-19T06:57:12;17.90;;;8.47;;
63016;SDS011;50274;45.640;11.756;2023-11-19T06:59:38;15.88;;;8.45;;
63016;SDS011;50274;45.640;11.756;2023-11-19T07:02:05;14.60;;;8.15;;
63016;SDS011;50274;45.640;11.756;2023-11-19T07:04:31;15.35;;;8.45;;
63016;SDS011;50274;45.640;11.756;2023-11-19T07:06:58;13.82;;;7.70;;
63016;SDS011;50274;45.640;11.756;2023-11-19T07:09:25;13.83;;;7.53;;
63016;SDS011;50274;45.640;11.756;2023-11-19T07:11:51;16.38;;;8.48;;
63016;SDS011;50274;45.640;11.756;2023-11-19T07:14:17;16.02;;;8.57;;
63016;SDS011;50274;45.640;11.756;2023-11-19T07:16:43;13.50;;;7.63;;
63016;SDS011;50274;45.640;11.756;2023-11-19T07:19:11;18.38;;;7.90;;
63016;SDS011;50274;45.640;11.756;2023-11-19T07:21:39;15.43;;;8.17;;
63016;SDS011;50274;45.640;11.756;2023-11-19T07:24:09;15.82;;;7.95;;
63016;SDS011;50274;45.640;11.756;2023-11-19T07:26:42;16.27;;;8.48;;
63016;SDS011;50274;45.640;11.756;2023-11-19T07:29:09;16.35;;;7.97;;
63016;SDS011;50274;45.640;11.756;2023-11-19T07:31:35;18.77;;;8.33;;
63016;SDS011;50274;45.640;11.756;2023-11-19T07:34:02;16.88;;;8.35;;
63016;SDS011;50274;45.640;11.756;2023-11-19T07:36:28;18.15;;;9.40;;
63016;SDS011;50274;45.640;11.756;2023-11-19T07:38:54;17.67;;;9.05;;
63016;SDS011;50274;45.640;11.756;2023-11-19T07:41:22;15.63;;;7.87;;
63016;SDS011;50274;45.640;11.756;2023-11-19T07:43:50;14.40;;;8.43;;
63016;SDS011;50274;45.640;11.756;2023-11-19T07:46:16;15.73;;;9.05;;
63016;SDS011;50274;45.640;11.756;2023-11-19T07:48:45;17.10;;;9.20;;
63016;SDS011;50274;45.640;11.756;2023-11-19T07:51:14;18.23;;;9.93;;
63016;SDS011;50274;45.640;11.756;2023-11-19T07:53:40;17.00;;;9.07;;
63016;SDS011;50274;45.640;11.756;2023-11-19T07:56:07;17.27;;;9.68;;
63016;SDS011;50274;45.640;11.756;2023-11-19T07:58:33;16.23;;;9.18;;
63016;SDS011;50274;45.640;11.756;2023-11-19T08:01:00;17.38;;;9.55;;
63016;SDS011;50274;45.640;11.756;2023-11-19T08:03:27;18.58;;;10.35;;
63016;SDS011;50274;45.640;11.756;2023-11-19T08:05:55;15.40;;;9.30;;
63016;SDS011;50274;45.640;11.756;2023-11-19T08:08:22;17.38;;;9.60;;
63016;SDS011;50274;45.640;11.756;2023-11-19T08:10:48;16.55;;;9.50;;
63016;SDS011;50274;45.640;11.756;2023-11-19T08:13:14;19.02;;;9.70;;
63016;SDS011;50274;45.640;11.756;2023-11-19T08:15:40;14.97;;;8.90;;
63016;SDS011;50274;45.640;11.756;2023-11-19T08:18:06;14.45;;;9.18;;
63016;SDS011;50274;45.640;11.756;2023-11-19T08:20:32;15.00;;;8.70;;
63016;SDS011;50274;45.640;11.756;2023-11-19T08:22:59;18.92;;;9.55;;
63016;SDS011;50274;45.640;11.756;2023-11-19T08:25:25;16.43;;;8.93;;
63016;SDS011;50274;45.640;11.756;2023-11-19T08:27:50;15.52;;;9.43;;
63016;SDS011;50274;45.640;11.756;2023-11-19T08:30:17;17.08;;;9.70;;
63016;SDS011;50274;45.640;11.756;2023-11-19T08:32:44;17.67;;;9.57;;
63016;SDS011;50274;45.640;11.756;2023-11-19T08:35:10;18.77;;;10.00;;
63016;SDS011;50274;45.640;11.756;2023-11-19T08:37:35;18.27;;;9.52;;
63016;SDS011;50274;45.640;11.756;2023-11-19T08:40:02;17.90;;;9.32;;
63016;SDS011;50274;45.640;11.756;2023-11-19T08:42:29;25.13;;;11.87;;
63016;SDS011;50274;45.640;11.756;2023-11-19T08:44:55;26.58;;;12.05;;
63016;SDS011;50274;45.640;11.756;2023-11-19T08:47:21;23.08;;;12.30;;
63016;SDS011;50274;45.640;11.756;2023-11-19T08:49:48;20.17;;;11.25;;
63016;SDS011;50274;45.640;11.756;2023-11-19T08:52:20;19.97;;;10.70;;
63016;SDS011;50274;45.640;11.756;2023-11-19T08:54:46;19.10;;;10.23;;
63016;SDS011;50274;45.640;11.756;2023-11-19T08:57:11;18.98;;;10.82;;
63016;SDS011;50274;45.640;11.756;2023-11-19T08:59:37;19.20;;;10.53;;
63016;SDS011;50274;45.640;11.756;2023-11-19T09:02:06;17.00;;;9.15;;
63016;SDS011;50274;45.640;11.756;2023-11-19T09:04:33;17.27;;;9.40;;
63016;SDS011;50274;45.640;11.756;2023-11-19T09:06:59;16.70;;;8.90;;
63016;SDS011;50274;45.640;11.756;2023-11-19T09:09:25;16.67;;;9.30;;
63016;SDS011;50274;45.640;11.756;2023-11-19T09:11:51;15.38;;;8.43;;
63016;SDS011;50274;45.640;11.756;2023-11-19T09:14:16;15.00;;;8.45;;
63016;SDS011;50274;45.640;11.756;2023-11-19T09:16:43;13.80;;;8.18;;
63016;SDS011;50274;45.640;11.756;2023-11-19T09:19:09;18.07;;;8.20;;
63016;SDS011;50274;45.640;11.756;2023-11-19T09:21:35;14.32;;;8.38;;
63016;SDS011;50274;45.640;11.756;2023-11-19T09:24:03;13.70;;;7.05;;
63016;SDS011;50274;45.640;11.756;2023-11-19T09:26:30;13.67;;;7.33;;
63016;SDS011;50274;45.640;11.756;2023-11-19T09:28:56;12.55;;;7.22;;
63016;SDS011;50274;45.640;11.756;2023-11-19T09:31:22;11.00;;;6.43;;
63016;SDS011;50274;45.640;11.756;2023-11-19T09:33:47;10.77;;;5.93;;
63016;SDS011;50274;45.640;11.756;2023-11-19T09:36:13;9.27;;;5.70;;
63016;SDS011;50274;45.640;11.756;2023-11-19T09:38:48;10.88;;;6.43;;
63016;SDS011;50274;45.640;11.756;2023-11-19T09:41:14;10.25;;;5.25;;
63016;SDS011;50274;45.640;11.756;2023-11-19T09:43:42;10.38;;;5.53;;
63016;SDS011;50274;45.640;11.756;2023-11-19T09:46:11;10.53;;;5.60;;
63016;SDS011;50274;45.640;11.756;2023-11-19T09:48:40;12.10;;;6.25;;
63016;SDS011;50274;45.640;11.756;2023-11-19T09:51:07;11.13;;;6.10;;
63016;SDS011;50274;45.640;11.756;2023-11-19T09:53:35;10.80;;;5.45;;
63016;SDS011;50274;45.640;11.756;2023-11-19T09:56:02;10.68;;;6.75;;
63016;SDS011;50274;45.640;11.756;2023-11-19T09:58:29;11.17;;;6.10;;
63016;SDS011;50274;45.640;11.756;2023-11-19T10:00:58;25.45;;;7.30;;
63016;SDS011;50274;45.640;11.756;2023-11-19T10:03:26;13.05;;;7.32;;
63016;SDS011;50274;45.640;11.756;2023-11-19T10:05:56;12.98;;;7.55;;
63016;SDS011;50274;45.640;11.756;2023-11-19T10:08:22;12.73;;;7.07;;
63016;SDS011;50274;45.640;11.756;2023-11-19T10:10:48;11.90;;;6.47;;
63016;SDS011;50274;45.640;11.756;2023-11-19T10:13:14;15.05;;;8.15;;
63016;SDS011;50274;45.640;11.756;2023-11-19T10:15:40;14.70;;;7.95;;
63016;SDS011;50274;45.640;11.756;2023-11-19T10:18:06;14.52;;;8.15;;
63016;SDS011;50274;45.640;11.756;2023-11-19T10:20:36;17.57;;;9.37;;
63016;SDS011;50274;45.640;11.756;2023-11-19T10:23:02;16.77;;;10.10;;
63016;SDS011;50274;45.640;11.756;2023-11-19T10:25:29;14.07;;;8.90;;
63016;SDS011;50274;45.640;11.756;2023-11-19T10:27:55;15.10;;;8.88;;
63016;SDS011;50274;45.640;11.756;2023-11-19T10:30:22;15.40;;;9.95;;
63016;SDS011;50274;45.640;11.756;2023-11-19T10:33:02;16.53;;;10.93;;
63016;SDS011;50274;45.640;11.756;2023-11-19T10:35:33;16.55;;;9.57;;
63016;SDS011;50274;45.640;11.756;2023-11-19T10:38:33;18.90;;;9.93;;
63016;SDS011;50274;45.640;11.756;2023-11-19T10:40:52;16.52;;;9.55;;
63016;SDS011;50274;45.640;11.756;2023-11-19T10:43:20;16.15;;;9.68;;
63016;SDS011;50274;45.640;11.756;2023-11-19T10:45:50;17.80;;;10.13;;
63016;SDS011;50274;45.640;11.756;2023-11-19T10:48:16;18.63;;;9.38;;
63016;SDS011;50274;45.640;11.756;2023-11-19T10:50:43;16.00;;;9.73;;
63016;SDS011;50274;45.640;11.756;2023-11-19T10:53:11;16.38;;;9.20;;
63016;SDS011;50274;45.640;11.756;2023-11-19T10:55:41;15.95;;;8.43;;
63016;SDS011;50274;45.640;11.756;2023-11-19T10:58:08;14.30;;;8.13;;
63016;SDS011;50274;45.640;11.756;2023-11-19T11:00:39;14.68;;;8.10;;
63016;SDS011;50274;45.640;11.756;2023-11-19T11:03:14;15.80;;;9.18;;
63016;SDS011;50274;45.640;11.756;2023-11-19T11:05:40;14.15;;;8.02;;
63016;SDS011;50274;45.640;11.756;2023-11-19T11:08:07;14.77;;;8.65;;
63016;SDS011;50274;45.640;11.756;2023-11-19T11:10:35;12.13;;;7.30;;
63016;SDS011;50274;45.640;11.756;2023-11-19T11:13:25;13.30;;;7.57;;
63016;SDS011;50274;45.640;11.756;2023-11-19T11:15:55;12.32;;;7.10;;
63016;SDS011;50274;45.640;11.756;2023-11-19T11:18:22;11.60;;;6.70;;
63016;SDS011;50274;45.640;11.756;2023-11-19T11:20:51;12.73;;;7.15;;
63016;SDS011;50274;45.640;11.756;2023-11-19T11:23:28;12.80;;;7.20;;
63016;SDS011;50274;45.640;11.756;2023-11-19T11:29:05;13.15;;;7.68;;
63016;SDS011;50274;45.640;11.756;2023-11-19T11:38:03;14.50;;;7.70;;
63016;SDS011;50274;45.640;11.756;2023-11-19T11:40:32;15.52;;;8.50;;
63016;SDS011;50274;45.640;11.756;2023-11-19T11:42:58;13.93;;;8.18;;
63016;SDS011;50274;45.640;11.756;2023-11-19T11:45:37;15.68;;;9.10;;
63016;SDS011;50274;45.640;11.756;2023-11-19T11:50:34;15.77;;;7.97;;
63016;SDS011;50274;45.640;11.756;2023-11-19T11:53:18;16.98;;;8.73;;
63016;SDS011;50274;45.640;11.756;2023-11-19T11:58:13;13.83;;;8.40;;
63016;SDS011;50274;45.640;11.756;2023-11-19T12:00:43;14.77;;;8.27;;
63016;SDS011;50274;45.640;11.756;2023-11-19T12:03:11;13.02;;;8.00;;
63016;SDS011;50274;45.640;11.756;2023-11-19T12:05:41;13.13;;;8.07;;
63016;SDS011;50274;45.640;11.756;2023-11-19T12:08:09;14.13;;;8.40;;
63016;SDS011;50274;45.640;11.756;2023-11-19T12:10:58;14.73;;;8.30;;
63016;SDS011;50274;45.640;11.756;2023-11-19T12:13:23;13.70;;;7.97;;
63016;SDS011;50274;45.640;11.756;2023-11-19T12:18:30;13.18;;;7.50;;
63016;SDS011;50274;45.640;11.756;2023-11-19T12:20:58;14.60;;;9.10;;
63016;SDS011;50274;45.640;11.756;2023-11-19T12:23:28;13.90;;;8.50;;
63016;SDS011;50274;45.640;11.756;2023-11-19T12:25:55;14.95;;;8.82;;
63016;SDS011;50274;45.640;11.756;2023-11-19T12:28:21;12.75;;;7.70;;
63016;SDS011;50274;45.640;11.756;2023-11-19T12:30:49;12.43;;;7.70;;
63016;SDS011;50274;45.640;11.756;2023-11-19T12:33:15;12.13;;;7.40;;
63016;SDS011;50274;45.640;11.756;2023-11-19T12:38:08;13.82;;;8.35;;
63016;SDS011;50274;45.640;11.756;2023-11-19T12:40:43;14.75;;;8.13;;
63016;SDS011;50274;45.640;11.756;2023-11-19T12:43:09;16.77;;;7.80;;
63016;SDS011;50274;45.640;11.756;2023-11-19T12:45:36;13.50;;;8.00;;
63016;SDS011;50274;45.640;11.756;2023-11-19T12:48:06;12.55;;;7.78;;
63016;SDS011;50274;45.640;11.756;2023-11-19T12:50:51;12.95;;;7.75;;
63016;SDS011;50274;45.640;11.756;2023-11-19T12:53:25;12.98;;;7.50;;
63016;SDS011;50274;45.640;11.756;2023-11-19T12:55:52;13.80;;;7.43;;
63016;SDS011;50274;45.640;11.756;2023-11-19T12:58:31;13.25;;;8.27;;
63016;SDS011;50274;45.640;11.756;2023-11-19T13:01:05;14.57;;;9.13;;
63016;SDS011;50274;45.640;11.756;2023-11-19T13:03:35;14.40;;;8.77;;
63016;SDS011;50274;45.640;11.756;2023-11-19T13:08:36;16.50;;;9.13;;
63016;SDS011;50274;45.640;11.756;2023-11-19T13:11:14;16.02;;;9.18;;
63016;SDS011;50274;45.640;11.756;2023-11-19T13:14:20;12.50;;;7.93;;
63016;SDS011;50274;45.640;11.756;2023-11-19T13:17:05;13.88;;;7.88;;
63016;SDS011;50274;45.640;11.756;2023-11-19T13:19:30;14.67;;;8.00;;
63016;SDS011;50274;45.640;11.756;2023-11-19T13:21:56;14.33;;;8.40;;
63016;SDS011;50274;45.640;11.756;2023-11-19T13:24:22;14.68;;;9.18;;
63016;SDS011;50274;45.640;11.756;2023-11-19T13:26:48;16.47;;;8.33;;
63016;SDS011;50274;45.640;11.756;2023-11-19T13:29:14;13.40;;;8.57;;
63016;SDS011;50274;45.640;11.756;2023-11-19T13:31:39;14.20;;;8.57;;
63016;SDS011;50274;45.640;11.756;2023-11-19T13:34:05;14.70;;;8.73;;
63016;SDS011;50274;45.640;11.756;2023-11-19T13:36:32;13.45;;;8.20;;
63016;SDS011;50274;45.640;11.756;2023-11-19T13:38:59;15.63;;;8.88;;
63016;SDS011;50274;45.640;11.756;2023-11-19T13:41:26;15.60;;;9.05;;
63016;SDS011;50274;45.640;11.756;2023-11-19T13:43:52;14.07;;;8.82;;
63016;SDS011;50274;45.640;11.756;2023-11-19T13:46:18;14.83;;;8.90;;
63016;SDS011;50274;45.640;11.756;2023-11-19T13:48:45;12.88;;;8.65;;
63016;SDS011;50274;45.640;11.756;2023-11-19T13:51:11;14.48;;;9.00;;
63016;SDS011;50274;45.640;11.756;2023-11-19T13:53:37;15.93;;;10.52;;
63016;SDS011;50274;45.640;11.756;2023-11-19T13:56:02;14.87;;;9.93;;
63016;SDS011;50274;45.640;11.756;2023-11-19T13:58:28;19.55;;;10.75;;
63016;SDS011;50274;45.640;11.756;2023-11-19T14:00:54;15.15;;;9.07;;
63016;SDS011;50274;45.640;11.756;2023-11-19T14:03:20;14.50;;;9.03;;
63016;SDS011;50274;45.640;11.756;2023-11-19T14:05:46;15.35;;;9.93;;
63016;SDS011;50274;45.640;11.756;2023-11-19T14:08:12;17.15;;;9.13;;
63016;SDS011;50274;45.640;11.756;2023-11-19T14:10:38;15.90;;;9.77;;
63016;SDS011;50274;45.640;11.756;2023-11-19T14:13:05;15.23;;;8.70;;
63016;SDS011;50274;45.640;11.756;2023-11-19T14:15:31;13.93;;;8.55;;
63016;SDS011;50274;45.640;11.756;2023-11-19T14:17:57;15.57;;;9.25;;
63016;SDS011;50274;45.640;11.756;2023-11-19T14:20:23;18.60;;;10.47;;
63016;SDS011;50274;45.640;11.756;2023-11-19T14:22:50;14.38;;;8.73;;
63016;SDS011;50274;45.640;11.756;2023-11-19T14:25:17;15.00;;;9.00;;
63016;SDS011;50274;45.640;11.756;2023-11-19T14:27:44;14.88;;;8.57;;
63016;SDS011;50274;45.640;11.756;2023-11-19T14:30:13;15.73;;;8.95;;
63016;SDS011;50274;45.640;11.756;2023-11-19T14:32:40;15.77;;;8.83;;
63016;SDS011;50274;45.640;11.756;2023-11-19T14:35:12;35.10;;;22.85;;
63016;SDS011;50274;45.640;11.756;2023-11-19T14:37:38;24.42;;;15.10;;
63016;SDS011;50274;45.640;11.756;2023-11-19T14:40:04;19.88;;;12.25;;